Time;durP1;ratioP1;P1;durP2;ratioP2;P2;SDS_P1;SDS_P2;PMS_P1;PMS_P2;Temp;Humidity;BMP_temperature;BMP_pressure;BME280_temperature;BME280_humidity;BME280_pressure;Samples;Min_cycle;Max_cycle;Signal;HPM_P1;HPM_P2
2023/02/01 00:02:09;;;;;;;4.05;1.80;;;3.40;78.30;;;;;;5086647;28;20667;-69
2023/02/01 00:04:34;;;;;;;3.78;1.83;;;3.40;78.10;;;;;;5092217;27;20065;-69
2023/02/01 00:07:01;;;;;;;6.25;2.50;;;3.60;77.40;;;;;;5086609;28;20033;-69
2023/02/01 00:09:26;;;;;;;4.15;1.73;;;3.50;77.70;;;;;;5090239;28;20040;-69
2023/02/01 00:11:52;;;;;;;3.45;1.52;;;3.20;78.70;;;;;;5102291;28;20032;-70
2023/02/01 00:14:18;;;;;;;4.65;2.13;;;3.00;79.10;;;;;;5092471;28;20032;-69
2023/02/01 00:16:43;;;;;;;4.80;2.20;;;3.10;79.00;;;;;;5092587;28;20622;-69
2023/02/01 00:19:14;;;;;;;4.82;1.90;;;2.80;80.90;;;;;;5090626;28;20030;-69
2023/02/01 00:21:41;;;;;;;5.07;1.90;;;2.80;80.80;;;;;;5089801;28;20114;-69
2023/02/01 00:24:08;;;;;;;5.90;2.03;;;3.10;79.10;;;;;;5099872;28;20035;-69
2023/02/01 00:26:42;;;;;;;5.07;2.03;;;3.30;78.20;;;;;;5091108;28;20440;-69
2023/02/01 00:29:14;;;;;;;3.63;1.73;;;3.40;78.20;;;;;;5090342;28;20114;-69
2023/02/01 00:31:40;;;;;;;4.40;1.70;;;3.40;78.20;;;;;;5095691;28;20036;-69
2023/02/01 00:34:06;;;;;;;2.50;1.40;;;3.20;79.20;;;;;;5090676;28;20482;-69
2023/02/01 00:36:32;;;;;;;3.78;1.80;;;3.10;79.90;;;;;;5090478;27;20044;-69
2023/02/01 00:38:57;;;;;;;5.82;1.60;;;3.20;78.40;;;;;;5089511;28;20020;-69
2023/02/01 00:41:23;;;;;;;3.88;1.70;;;3.30;78.00;;;;;;5088733;28;20035;-69
2023/02/01 00:43:49;;;;;;;3.90;1.75;;;3.30;78.90;;;;;;5093133;28;20036;-69
2023/02/01 00:46:17;;;;;;;3.17;1.35;;;3.20;78.00;;;;;;5089748;28;20083;-69
2023/02/01 00:48:43;;;;;;;3.05;1.52;;;3.20;78.10;;;;;;5103641;28;20056;-69
2023/02/01 00:51:12;;;;;;;4.15;1.95;;;3.20;79.60;;;;;;5088859;28;20116;-69
2023/02/01 00:53:38;;;;;;;4.10;1.40;;;3.20;79.00;;;;;;5090352;28;20482;-69
2023/02/01 00:56:05;;;;;;;3.13;1.20;;;3.20;78.70;;;;;;5088264;28;20024;-69
2023/02/01 00:58:30;;;;;;;3.38;1.48;;;3.20;79.10;;;;;;5088502;28;20362;-69
2023/02/01 01:01:09;;;;;;;4.30;1.48;;;3.10;79.50;;;;;;5094906;28;20024;-69
2023/02/01 01:03:37;;;;;;;6.13;1.40;;;3.00;79.80;;;;;;5091933;28;20031;-69
2023/02/01 01:06:10;;;;;;;2.70;1.35;;;3.00;80.00;;;;;;5091299;28;20023;-69
2023/02/01 01:08:37;;;;;;;4.85;1.70;;;3.00;80.50;;;;;;5088213;28;20027;-69
2023/02/01 01:11:08;;;;;;;4.90;1.10;;;3.30;78.60;;;;;;5100215;28;20031;-69
2023/02/01 01:13:34;;;;;;;3.17;1.10;;;3.10;80.40;;;;;;5089447;28;20041;-69
2023/02/01 01:16:02;;;;;;;3.75;1.50;;;3.00;80.70;;;;;;5088934;27;20028;-69
2023/02/01 01:18:29;;;;;;;3.58;1.52;;;3.00;80.70;;;;;;5089192;28;20449;-69
2023/02/01 01:20:54;;;;;;;2.08;0.88;;;2.80;81.20;;;;;;5100993;28;20401;-69
2023/02/01 01:23:20;;;;;;;3.38;1.25;;;2.60;82.50;;;;;;5088600;28;20024;-69
2023/02/01 01:25:46;;;;;;;1.95;1.13;;;2.60;82.50;;;;;;5093241;28;20024;-69
2023/02/01 01:28:11;;;;;;;4.13;1.10;;;2.20;84.20;;;;;;5096870;28;20032;-69
2023/02/01 01:30:37;;;;;;;3.78;1.10;;;2.10;84.30;;;;;;5089537;28;20028;-69
2023/02/01 01:33:03;;;;;;;4.13;1.50;;;2.10;83.90;;;;;;5088083;28;20474;-69
2023/02/01 01:35:30;;;;;;;3.40;1.33;;;2.20;83.40;;;;;;5090315;28;20028;-69
2023/02/01 01:37:55;;;;;;;2.58;0.95;;;2.30;83.20;;;;;;5088495;28;20040;-69
2023/02/01 01:40:21;;;;;;;3.97;1.17;;;2.30;83.00;;;;;;5096218;28;20109;-69
2023/02/01 01:42:48;;;;;;;2.80;1.33;;;2.40;82.20;;;;;;5091914;28;20028;-69
2023/02/01 01:45:21;;;;;;;4.45;1.20;;;2.60;81.50;;;;;;5095609;28;20039;-69
2023/02/01 01:47:51;;;;;;;3.17;1.40;;;2.60;81.00;;;;;;5087575;28;20027;-69
2023/02/01 01:50:22;;;;;;;3.63;1.40;;;2.60;81.10;;;;;;5087247;28;20032;-69
2023/02/01 01:52:50;;;;;;;4.20;1.77;;;2.50;82.10;;;;;;5088119;28;20486;-69
2023/02/01 01:55:18;;;;;;;3.67;1.38;;;2.50;81.10;;;;;;5088500;28;20043;-69
2023/02/01 01:57:49;;;;;;;3.47;1.48;;;2.30;82.50;;;;;;5092419;28;20488;-69
2023/02/01 02:00:19;;;;;;;4.32;1.50;;;2.20;82.40;;;;;;5090241;28;20370;-69
2023/02/01 02:02:47;;;;;;;3.95;1.35;;;2.10;84.80;;;;;;5094959;28;20019;-69
2023/02/01 02:05:13;;;;;;;5.43;1.33;;;2.10;83.20;;;;;;5088790;28;20066;-69
2023/02/01 02:07:46;;;;;;;3.35;1.85;;;2.10;82.50;;;;;;5087501;28;20024;-69
2023/02/01 02:10:13;;;;;;;3.83;1.38;;;2.30;81.90;;;;;;5087745;28;20028;-69
2023/02/01 02:12:41;;;;;;;5.20;1.90;;;2.30;81.80;;;;;;5087932;28;20032;-69
2023/02/01 02:15:13;;;;;;;5.95;2.45;;;2.50;81.10;;;;;;5092179;28;20032;-69
2023/02/01 02:18:04;;;;;;;3.95;1.85;;;2.30;81.10;;;;;;5087654;28;20023;-69
2023/02/01 02:21:21;;;;;;;4.45;1.80;;;2.40;80.50;;;;;;5088145;28;20063;-69
2023/02/01 02:24:14;;;;;;;4.75;2.22;;;2.50;80.40;;;;;;5023259;28;20124;-69
2023/02/01 02:26:54;;;;;;;4.00;1.52;;;2.60;80.40;;;;;;5093749;28;20490;-69
2023/02/01 02:29:25;;;;;;;5.93;1.67;;;2.50;80.90;;;;;;5092493;28;20104;-69
2023/02/01 02:32:12;;;;;;;5.03;1.90;;;2.60;80.30;;;;;;5089151;28;20481;-69
2023/02/01 02:34:55;;;;;;;4.88;1.63;;;2.70;80.30;;;;;;5089729;28;20032;-69
2023/02/01 02:37:48;;;;;;;7.70;1.67;;;2.60;80.50;;;;;;5088284;28;20045;-69
2023/02/01 02:40:49;;;;;;;4.47;1.30;;;2.70;81.00;;;;;;5093804;28;20471;-69
2023/02/01 02:49:39;;;;;;;3.60;1.38;;;2.60;81.10;;;;;;5056509;28;20075;-69
2023/02/01 02:55:04;;;;;;;2.38;1.13;;;2.50;81.40;;;;;;5091970;28;20509;-69
2023/02/01 03:05:58;;;;;;;2.50;1.38;;;2.80;80.30;;;;;;5092608;28;20039;-69
2023/02/01 03:08:27;;;;;;;2.90;1.15;;;2.80;80.40;;;;;;5091881;28;20028;-69
2023/02/01 03:10:59;;;;;;;5.78;1.60;;;2.50;81.70;;;;;;5090909;28;20028;-69
2023/02/01 03:13:33;;;;;;;3.40;1.45;;;2.30;81.70;;;;;;5091102;28;20039;-69
2023/02/01 03:16:13;;;;;;;3.78;1.50;;;2.30;82.40;;;;;;5100695;28;20058;-69
2023/02/01 03:18:53;;;;;;;3.60;1.13;;;2.10;83.00;;;;;;5092296;28;20094;-69
2023/02/01 03:21:24;;;;;;;5.53;1.48;;;2.10;83.70;;;;;;5095704;28;20032;-69
2023/02/01 03:23:52;;;;;;;5.10;1.80;;;2.00;84.10;;;;;;5091610;27;20371;-69
2023/02/01 03:26:21;;;;;;;4.40;1.50;;;2.00;83.10;;;;;;5091337;28;20032;-69
2023/02/01 03:28:55;;;;;;;2.80;1.58;;;1.90;84.30;;;;;;5096155;28;20028;-70
2023/02/01 03:31:23;;;;;;;4.35;1.55;;;1.90;85.70;;;;;;5103890;28;20116;-69
2023/02/01 03:33:48;;;;;;;2.92;1.35;;;1.80;84.50;;;;;;5091598;28;20074;-69
2023/02/01 03:36:22;;;;;;;5.18;1.60;;;1.80;83.90;;;;;;5097483;28;20080;-69
2023/02/01 03:38:48;;;;;;;4.55;1.40;;;1.70;84.70;;;;;;5098407;27;20023;-69
2023/02/01 03:41:23;;;;;;;3.17;1.25;;;1.60;84.60;;;;;;5092489;28;20032;-70
2023/02/01 03:43:56;;;;;;;5.93;2.10;;;1.60;84.60;;;;;;5090832;28;20016;-69
2023/02/01 03:46:37;;;;;;;4.38;1.60;;;1.70;83.60;;;;;;5093266;28;20067;-69
2023/02/01 03:49:08;;;;;;;4.03;1.60;;;1.60;84.40;;;;;;5090495;28;20032;-69
2023/02/01 03:51:35;;;;;;;4.15;1.60;;;1.70;84.50;;;;;;5090190;28;20101;-69
2023/02/01 03:54:03;;;;;;;3.75;1.33;;;2.00;82.90;;;;;;5096547;28;20046;-69
2023/02/01 03:56:31;;;;;;;2.70;1.10;;;2.00;83.30;;;;;;5089317;28;20038;-69
2023/02/01 03:58:59;;;;;;;3.22;1.40;;;2.00;84.40;;;;;;5091494;28;20456;-69
2023/02/01 04:01:30;;;;;;;4.15;2.15;;;2.30;83.60;;;;;;5093367;27;20028;-68
2023/02/01 04:03:57;;;;;;;5.22;1.10;;;2.50;82.10;;;;;;5093377;28;20394;-68
2023/02/01 04:06:24;;;;;;;3.70;1.42;;;2.40;82.50;;;;;;5085435;28;20032;-69
2023/02/01 04:08:50;;;;;;;2.13;1.17;;;2.40;83.10;;;;;;5084980;28;20489;-68
2023/02/01 04:11:16;;;;;;;4.38;1.60;;;2.00;84.40;;;;;;5085942;28;20047;-68
2023/02/01 04:13:42;;;;;;;3.38;1.35;;;1.80;84.30;;;;;;5086122;28;20470;-68
2023/02/01 04:16:08;;;;;;;3.15;1.40;;;1.60;85.10;;;;;;5084421;28;20085;-68
2023/02/01 04:18:34;;;;;;;3.67;1.33;;;1.50;87.70;;;;;;5085262;28;20035;-68
2023/02/01 04:21:01;;;;;;;3.65;1.00;;;1.40;86.90;;;;;;5082471;28;20046;-68
2023/02/01 04:23:27;;;;;;;3.80;1.20;;;1.50;86.40;;;;;;5084581;28;20031;-68
2023/02/01 04:25:53;;;;;;;3.67;1.30;;;1.60;86.00;;;;;;5093756;28;20473;-68
2023/02/01 04:28:19;;;;;;;5.15;2.50;;;1.50;86.80;;;;;;5084597;28;20028;-68
2023/02/01 04:30:45;;;;;;;5.90;1.92;;;1.60;84.30;;;;;;5085303;28;20483;-67
2023/02/01 04:33:13;;;;;;;2.35;1.10;;;1.60;84.00;;;;;;5081914;28;20632;-67
2023/02/01 04:35:40;;;;;;;3.10;1.30;;;1.60;85.80;;;;;;5083698;28;20020;-67
2023/02/01 04:38:06;;;;;;;2.53;1.10;;;1.80;85.10;;;;;;5083280;28;20575;-67
2023/02/01 04:40:37;;;;;;;5.20;1.58;;;1.70;85.80;;;;;;5083622;28;20107;-68
2023/02/01 04:43:03;;;;;;;4.43;1.77;;;1.60;84.90;;;;;;5084473;28;20051;-68
2023/02/01 04:45:29;;;;;;;5.70;1.58;;;1.50;85.60;;;;;;5086655;28;20538;-67
2023/02/01 04:47:55;;;;;;;3.50;1.85;;;1.30;86.60;;;;;;5084764;28;20588;-67
2023/02/01 04:50:21;;;;;;;3.45;1.70;;;1.30;85.90;;;;;;5084409;28;20111;-67
2023/02/01 04:52:46;;;;;;;4.78;1.50;;;1.30;87.60;;;;;;5094142;28;20466;-68
2023/02/01 04:55:13;;;;;;;3.15;1.65;;;1.10;87.90;;;;;;5092704;28;20032;-67
2023/02/01 04:57:40;;;;;;;3.70;1.38;;;1.20;88.10;;;;;;5088485;28;20035;-67
2023/02/01 05:00:07;;;;;;;3.50;1.45;;;1.10;87.80;;;;;;5083113;28;20035;-68
2023/02/01 05:02:34;;;;;;;5.43;2.35;;;1.30;88.10;;;;;;5083428;28;20520;-67
2023/02/01 05:05:00;;;;;;;3.50;1.55;;;1.30;87.40;;;;;;5089210;28;20024;-68
2023/02/01 05:07:26;;;;;;;2.55;1.40;;;1.10;87.60;;;;;;5083155;28;20031;-68
2023/02/01 05:09:51;;;;;;;2.95;1.27;;;1.00;88.50;;;;;;5083551;28;20035;-68
2023/02/01 05:15:01;;;;;;;1.67;0.80;;;1.10;87.50;;;;;;5081335;27;20103;-68
2023/02/01 05:17:27;;;;;;;3.17;1.05;;;1.20;87.80;;;;;;5088298;28;20285;-68
2023/02/01 05:19:52;;;;;;;3.35;1.33;;;1.50;87.30;;;;;;5081956;28;20436;-67
2023/02/01 05:22:18;;;;;;;4.03;1.95;;;1.50;87.50;;;;;;5082058;28;20081;-68
2023/02/01 05:24:44;;;;;;;7.13;3.17;;;1.50;87.70;;;;;;5084130;28;20077;-67
2023/02/01 05:27:10;;;;;;;5.18;1.95;;;1.60;85.30;;;;;;5084620;28;20023;-68
2023/02/01 05:29:35;;;;;;;3.53;1.25;;;1.70;86.30;;;;;;5077936;28;20032;-67
2023/02/01 05:32:01;;;;;;;2.60;1.23;;;1.60;87.00;;;;;;5081036;28;20038;-68
2023/02/01 05:34:27;;;;;;;3.00;1.15;;;1.80;86.50;;;;;;5087152;28;20545;-67
2023/02/01 05:36:52;;;;;;;6.80;3.47;;;1.80;86.00;;;;;;5081513;28;20514;-67
2023/02/01 05:39:18;;;;;;;8.85;2.70;;;1.90;84.00;;;;;;5080753;27;20071;-68
2023/02/01 05:41:44;;;;;;;6.15;2.75;;;1.90;84.20;;;;;;5094277;28;20389;-68
2023/02/01 05:44:11;;;;;;;8.27;3.92;;;1.80;85.10;;;;;;5082209;28;20449;-67
2023/02/01 05:46:36;;;;;;;8.50;4.45;;;1.60;85.40;;;;;;5081899;28;20106;-68
2023/02/01 05:49:03;;;;;;;6.55;3.58;;;1.40;86.10;;;;;;5081707;28;20491;-68
2023/02/01 05:51:29;;;;;;;7.00;3.35;;;1.30;86.40;;;;;;5080507;28;20035;-67
2023/02/01 05:53:55;;;;;;;5.93;2.47;;;1.30;87.60;;;;;;5080783;28;20035;-68
2023/02/01 05:56:20;;;;;;;4.20;2.25;;;1.40;88.00;;;;;;5081051;28;20036;-68
2023/02/01 05:58:46;;;;;;;3.50;1.30;;;1.30;87.50;;;;;;5080183;28;20032;-68
2023/02/01 06:01:11;;;;;;;7.35;1.40;;;1.60;87.50;;;;;;5080959;28;20039;-68
2023/02/01 06:03:37;;;;;;;3.67;1.27;;;1.50;87.40;;;;;;5087611;28;20031;-67
2023/02/01 06:06:03;;;;;;;3.80;1.50;;;1.40;89.40;;;;;;5088707;28;20024;-67
2023/02/01 06:08:29;;;;;;;4.57;1.70;;;1.20;90.70;;;;;;5080358;28;20055;-68
2023/02/01 06:11:03;;;;;;;4.57;1.80;;;1.00;90.20;;;;;;5084372;28;20478;-68
2023/02/01 06:13:29;;;;;;;10.20;2.40;;;0.90;90.20;;;;;;5081176;28;20024;-67
2023/02/01 06:15:56;;;;;;;4.85;2.33;;;0.70;90.30;;;;;;5080420;28;20028;-67
2023/02/01 06:18:23;;;;;;;7.38;2.08;;;0.70;89.70;;;;;;5081883;28;20032;-68
2023/02/01 06:20:55;;;;;;;4.45;1.60;;;0.60;90.10;;;;;;5085292;27;20370;-67
2023/02/01 06:23:23;;;;;;;2.70;1.00;;;0.70;90.30;;;;;;5089840;28;20028;-68
2023/02/01 06:25:58;;;;;;;7.28;1.60;;;1.20;90.10;;;;;;5088131;28;20038;-67
2023/02/01 06:28:23;;;;;;;3.72;1.42;;;1.50;87.00;;;;;;5086107;28;20050;-67
2023/02/01 06:30:49;;;;;;;2.42;1.58;;;1.60;86.70;;;;;;5096782;28;20046;-68
2023/02/01 06:33:15;;;;;;;4.22;1.45;;;1.50;87.10;;;;;;5091858;28;20492;-68
2023/02/01 06:35:44;;;;;;;3.05;1.10;;;1.50;87.30;;;;;;5090714;28;20472;-68
2023/02/01 06:38:13;;;;;;;6.18;1.73;;;1.30;89.10;;;;;;5086397;28;20047;-68
2023/02/01 06:40:40;;;;;;;5.00;1.83;;;1.30;90.20;;;;;;5089764;28;20032;-68
2023/02/01 06:43:06;;;;;;;4.03;1.90;;;1.10;88.70;;;;;;5087325;27;20080;-69
2023/02/01 06:45:32;;;;;;;4.88;2.03;;;0.90;90.30;;;;;;5086725;28;20027;-70
2023/02/01 06:48:00;;;;;;;3.78;1.60;;;0.90;90.60;;;;;;5083641;28;20035;-69
2023/02/01 06:50:26;;;;;;;3.60;1.02;;;0.60;90.50;;;;;;5090310;28;20023;-71
2023/02/01 06:52:52;;;;;;;2.60;1.20;;;1.00;90.50;;;;;;5093834;28;20498;-71
2023/02/01 06:55:17;;;;;;;3.25;1.30;;;1.40;88.30;;;;;;5087014;28;20028;-71
2023/02/01 06:57:43;;;;;;;4.07;1.30;;;1.50;87.80;;;;;;5083901;28;20067;-71
2023/02/01 07:00:09;;;;;;;5.43;1.52;;;1.40;88.10;;;;;;5085057;28;20088;-69
2023/02/01 07:02:35;;;;;;;3.60;1.40;;;1.40;88.00;;;;;;5090703;28;20032;-71
2023/02/01 07:05:00;;;;;;;5.25;2.80;;;1.40;88.70;;;;;;5086600;27;20044;-71
2023/02/01 07:07:26;;;;;;;5.00;1.48;;;1.20;90.30;;;;;;5086311;28;20580;-69
2023/02/01 07:09:52;;;;;;;4.65;1.55;;;1.10;89.80;;;;;;5084665;28;20040;-69
2023/02/01 07:12:19;;;;;;;3.60;1.40;;;1.20;90.00;;;;;;5087694;28;20647;-69
2023/02/01 07:14:44;;;;;;;2.05;1.20;;;1.20;90.40;;;;;;5090282;28;20086;-70
2023/02/01 07:17:10;;;;;;;3.53;1.30;;;1.30;89.90;;;;;;5091885;28;20553;-69
2023/02/01 07:19:36;;;;;;;4.57;2.20;;;1.50;88.90;;;;;;5085874;28;20031;-69
2023/02/01 07:22:01;;;;;;;3.28;2.05;;;1.40;90.10;;;;;;5091123;28;20032;-69
2023/02/01 07:24:27;;;;;;;3.47;1.50;;;1.30;88.70;;;;;;5085517;28;20032;-69
2023/02/01 07:26:53;;;;;;;4.47;1.65;;;1.30;88.70;;;;;;5086429;28;20420;-69
2023/02/01 07:29:19;;;;;;;3.97;1.90;;;1.30;88.70;;;;;;5084539;28;20031;-69
2023/02/01 07:31:45;;;;;;;3.67;1.75;;;1.20;90.40;;;;;;5091280;28;20028;-69
2023/02/01 07:34:11;;;;;;;3.15;1.63;;;1.40;89.20;;;;;;5087381;28;20028;-69
2023/02/01 07:36:36;;;;;;;4.28;1.40;;;1.30;89.50;;;;;;5084881;28;20402;-69
2023/02/01 07:39:05;;;;;;;5.05;1.05;;;1.30;90.10;;;;;;5088909;28;20028;-69
2023/02/01 07:41:31;;;;;;;3.28;1.52;;;1.10;90.90;;;;;;5085066;28;20123;-69
2023/02/01 07:43:56;;;;;;;2.75;0.93;;;1.20;90.40;;;;;;5084138;28;20024;-69
2023/02/01 07:46:22;;;;;;;4.65;1.02;;;1.40;90.10;;;;;;5085403;28;20028;-69
2023/02/01 07:48:48;;;;;;;2.17;0.88;;;1.50;90.10;;;;;;5086068;28;20035;-69
2023/02/01 07:51:16;;;;;;;1.75;0.85;;;1.60;89.00;;;;;;5085157;28;20567;-69
2023/02/01 07:53:42;;;;;;;3.40;1.10;;;1.60;89.70;;;;;;5083291;28;20075;-69
2023/02/01 07:56:16;;;;;;;8.82;3.67;;;1.70;89.20;;;;;;5083777;28;20040;-70
2023/02/01 07:58:42;;;;;;;10.25;3.67;;;1.20;90.90;;;;;;5082157;28;20039;-69
2023/02/01 08:01:19;;;;;;;6.07;2.28;;;1.10;91.60;;;;;;5083200;28;20398;-69
2023/02/01 08:03:49;;;;;;;4.38;1.65;;;1.00;91.70;;;;;;5084057;28;20035;-69
2023/02/01 08:06:16;;;;;;;3.42;1.38;;;1.20;90.30;;;;;;5089883;28;20545;-68
2023/02/01 08:08:44;;;;;;;2.33;1.20;;;1.40;90.10;;;;;;5082363;28;20413;-68
2023/02/01 08:11:10;;;;;;;8.07;4.15;;;1.50;90.40;;;;;;5083084;28;20059;-69
2023/02/01 08:13:36;;;;;;;10.80;4.22;;;1.30;91.10;;;;;;5081919;28;20068;-69
2023/02/01 08:16:04;;;;;;;9.35;4.32;;;0.80;91.40;;;;;;5082409;28;20062;-69
2023/02/01 08:18:30;;;;;;;7.43;3.95;;;0.80;92.00;;;;;;5098441;28;20031;-69
2023/02/01 08:20:56;;;;;;;9.52;4.05;;;0.60;92.20;;;;;;5087363;28;20031;-69
2023/02/01 08:23:23;;;;;;;8.05;4.28;;;0.60;92.30;;;;;;5085540;28;20139;-69
2023/02/01 08:25:48;;;;;;;7.90;3.63;;;0.70;92.60;;;;;;5083693;28;20034;-69
2023/02/01 08:28:14;;;;;;;5.70;2.67;;;0.70;92.70;;;;;;5097575;28;20039;-69
2023/02/01 08:30:42;;;;;;;8.45;3.00;;;0.60;93.40;;;;;;5089734;28;20039;-69
2023/02/01 08:33:08;;;;;;;4.97;2.30;;;0.80;93.20;;;;;;5082231;28;20101;-69
2023/02/01 08:35:38;;;;;;;5.38;2.70;;;0.80;93.20;;;;;;5083029;28;20111;-69
2023/02/01 08:38:03;;;;;;;3.28;1.63;;;0.70;93.10;;;;;;5081719;28;20052;-69
2023/02/01 08:40:29;;;;;;;3.35;1.40;;;0.80;92.00;;;;;;5084595;28;20024;-69
2023/02/01 08:42:55;;;;;;;4.35;1.80;;;1.00;92.30;;;;;;5083271;27;20058;-69
2023/02/01 08:45:24;;;;;;;7.10;2.00;;;1.10;91.90;;;;;;5082975;28;20063;-69
2023/02/01 08:47:52;;;;;;;4.93;2.03;;;1.20;92.20;;;;;;5087822;28;20512;-69
2023/02/01 08:50:19;;;;;;;3.10;1.67;;;1.10;92.70;;;;;;5084431;28;20059;-69
2023/02/01 08:52:45;;;;;;;3.15;1.40;;;1.10;92.80;;;;;;5082413;28;20154;-69
2023/02/01 08:55:10;;;;;;;3.60;1.17;;;1.30;91.30;;;;;;5082827;28;20486;-69
2023/02/01 08:57:36;;;;;;;2.80;1.42;;;1.50;91.00;;;;;;5078866;28;20446;-68
2023/02/01 09:00:03;;;;;;;2.28;1.17;;;1.50;91.00;;;;;;5085627;27;20506;-68
2023/02/01 09:02:29;;;;;;;5.90;2.03;;;1.50;91.10;;;;;;5085744;28;20028;-68
2023/02/01 09:04:56;;;;;;;4.82;1.80;;;1.50;91.30;;;;;;5090919;28;20024;-68
2023/02/01 09:07:21;;;;;;;4.03;1.85;;;1.50;92.00;;;;;;5079815;28;20031;-68
2023/02/01 09:09:47;;;;;;;4.03;1.33;;;1.50;92.50;;;;;;5079825;28;20034;-69
2023/02/01 09:12:13;;;;;;;10.38;1.30;;;1.30;92.10;;;;;;5081410;28;20023;-68
2023/02/01 09:14:38;;;;;;;3.67;1.15;;;1.50;90.70;;;;;;5088156;28;20079;-70
2023/02/01 09:17:05;;;;;;;4.35;1.40;;;1.80;90.10;;;;;;5080763;28;20035;-68
2023/02/01 09:19:31;;;;;;;4.00;1.63;;;1.90;90.20;;;;;;5092768;28;20031;-68
2023/02/01 09:21:57;;;;;;;3.42;1.73;;;2.00;90.30;;;;;;5089751;28;20056;-70
2023/02/01 09:24:23;;;;;;;3.03;1.42;;;1.90;90.20;;;;;;5081349;28;20059;-71
2023/02/01 09:26:49;;;;;;;4.22;1.60;;;2.00;90.20;;;;;;5081187;28;20020;-71
2023/02/01 09:29:14;;;;;;;3.17;1.33;;;2.00;90.20;;;;;;5087908;28;20040;-70
2023/02/01 09:31:40;;;;;;;10.32;3.00;;;2.10;90.50;;;;;;5079506;28;20063;-71
2023/02/01 09:34:07;;;;;;;7.95;2.30;;;1.90;90.70;;;;;;5081350;28;20068;-70
2023/02/01 09:36:33;;;;;;;3.50;1.52;;;1.70;91.00;;;;;;5080128;28;20052;-70
2023/02/01 09:38:59;;;;;;;3.20;1.35;;;1.70;91.90;;;;;;5081557;28;20036;-71
2023/02/01 09:42:02;;;;;;;5.40;1.48;;;1.80;91.30;;;;;;5088049;28;20036;-70
2023/02/01 09:44:46;;;;;;;2.83;0.90;;;2.10;90.60;;;;;;5087606;28;20097;-70
2023/02/01 09:47:18;;;;;;;4.80;2.08;;;2.80;89.50;;;;;;5089817;28;20081;-70
2023/02/01 09:50:02;;;;;;;4.07;1.90;;;2.80;89.90;;;;;;5083040;28;20043;-70
2023/02/01 09:52:50;;;;;;;3.50;1.60;;;2.90;90.00;;;;;;5080752;28;20031;-70
2023/02/01 09:55:21;;;;;;;21.98;9.20;;;2.80;90.20;;;;;;5075834;28;20377;-71
2023/02/01 09:57:55;;;;;;;16.00;6.50;;;2.60;90.70;;;;;;5080458;28;20032;-71
2023/02/01 10:00:28;;;;;;;17.17;7.30;;;2.70;90.90;;;;;;5080296;28;20032;-70
2023/02/01 10:02:55;;;;;;;13.43;6.00;;;2.70;90.90;;;;;;5079273;28;20031;-71
2023/02/01 10:05:54;;;;;;;10.98;4.82;;;2.70;91.60;;;;;;5078742;28;20028;-70
2023/02/01 10:08:29;;;;;;;10.38;3.75;;;2.80;91.40;;;;;;5054419;28;20035;-70
2023/02/01 10:11:04;;;;;;;7.85;3.75;;;3.10;91.20;;;;;;5087190;28;20497;-70
2023/02/01 10:13:50;;;;;;;101.70;52.83;;;3.50;88.40;;;;;;5079954;28;20038;-70
2023/02/01 10:16:36;;;;;;;42.95;22.77;;;3.60;90.80;;;;;;5081884;28;20077;-70
2023/02/01 10:19:20;;;;;;;17.90;10.38;;;3.50;91.30;;;;;;5081646;28;20031;-71
2023/02/01 10:21:57;;;;;;;10.75;6.30;;;3.50;91.20;;;;;;5086915;28;20038;-71
2023/02/01 10:24:46;;;;;;;8.20;4.78;;;3.60;91.10;;;;;;5081956;28;20051;-71
2023/02/01 10:27:21;;;;;;;7.68;4.47;;;3.60;90.60;;;;;;5085696;28;20548;-70
2023/02/01 10:29:53;;;;;;;75.97;38.10;;;3.70;91.00;;;;;;5082336;28;20028;-71
2023/02/01 10:32:22;;;;;;;19.77;8.25;;;3.80;90.20;;;;;;5080692;28;20504;-71
2023/02/01 10:34:59;;;;;;;9.75;4.85;;;3.80;89.40;;;;;;5081882;28;20047;-70
2023/02/01 10:37:32;;;;;;;11.52;3.47;;;4.00;90.00;;;;;;5080241;28;20048;-70
2023/02/01 10:40:23;;;;;;;6.95;3.65;;;4.00;90.10;;;;;;5079853;28;20063;-71
2023/02/01 10:42:51;;;;;;;6.85;2.83;;;4.10;89.90;;;;;;5080056;28;20028;-70
2023/02/01 10:45:21;;;;;;;8.82;2.55;;;4.20;89.90;;;;;;5094557;28;20036;-71
2023/02/01 10:47:49;;;;;;;13.70;7.00;;;4.60;90.60;;;;;;5080002;28;20126;-70
2023/02/01 10:50:52;;;;;;;15.27;8.43;;;4.50;88.40;;;;;;5079289;28;20036;-70
2023/02/01 10:53:50;;;;;;;40.40;22.27;;;4.80;88.50;;;;;;5079473;28;20035;-71
2023/02/01 10:56:23;;;;;;;28.42;14.07;;;4.90;89.00;;;;;;5078751;28;20028;-70
2023/02/01 10:58:49;;;;;;;37.05;20.60;;;5.10;88.30;;;;;;5085252;28;20028;-70
2023/02/01 11:01:26;;;;;;;13.45;6.93;;;5.10;87.00;;;;;;5079461;28;20562;-70
2023/02/01 11:04:04;;;;;;;16.65;5.30;;;5.20;87.20;;;;;;5083702;28;20032;-70
2023/02/01 11:06:41;;;;;;;16.83;9.00;;;5.20;87.80;;;;;;5090014;28;20042;-70
2023/02/01 11:09:07;;;;;;;7.82;3.65;;;5.30;87.60;;;;;;5082705;28;20031;-70
2023/02/01 11:11:53;;;;;;;7.20;2.75;;;5.20;86.90;;;;;;5084494;28;20093;-70
2023/02/01 11:14:25;;;;;;;10.30;2.40;;;5.40;88.80;;;;;;5085061;28;20098;-70
2023/02/01 11:16:57;;;;;;;6.05;2.70;;;5.50;87.50;;;;;;5089030;28;20114;-70
2023/02/01 11:19:23;;;;;;;9.25;4.07;;;5.40;86.40;;;;;;5083276;28;20089;-70
2023/02/01 11:21:57;;;;;;;10.73;5.70;;;5.40;86.20;;;;;;5082452;28;20039;-70
2023/02/01 11:24:35;;;;;;;57.47;28.70;;;5.60;87.00;;;;;;5084925;28;20040;-70
2023/02/01 11:27:12;;;;;;;18.10;7.72;;;5.80;87.20;;;;;;5084260;28;20020;-70
2023/02/01 11:29:42;;;;;;;5.78;3.00;;;5.80;86.00;;;;;;5086058;28;20032;-70
2023/02/01 11:32:10;;;;;;;13.77;7.80;;;5.90;85.50;;;;;;5078739;28;20425;-70
2023/02/01 11:34:47;;;;;;;6.65;2.75;;;5.90;86.00;;;;;;5086512;28;20036;-70
2023/02/01 11:37:28;;;;;;;46.78;26.27;;;6.00;85.90;;;;;;5085641;28;20125;-70
2023/02/01 11:40:03;;;;;;;6.90;3.75;;;6.20;85.80;;;;;;5092436;28;20027;-71
2023/02/01 11:42:30;;;;;;;5.40;2.33;;;6.30;85.60;;;;;;5089936;28;20031;-70
2023/02/01 11:45:27;;;;;;;7.95;3.67;;;6.30;84.60;;;;;;5083103;28;20024;-68
2023/02/01 11:47:54;;;;;;;10.73;5.68;;;6.40;84.00;;;;;;5089712;28;20044;-70
2023/02/01 11:50:42;;;;;;;18.20;11.75;;;6.60;84.20;;;;;;5082181;28;20020;-68
2023/02/01 11:53:34;;;;;;;33.25;19.80;;;6.80;86.10;;;;;;5101889;28;20029;-68
2023/02/01 11:56:15;;;;;;;19.98;13.10;;;7.20;85.40;;;;;;5085773;28;20027;-68
2023/02/01 11:58:56;;;;;;;7.40;4.30;;;7.20;84.30;;;;;;5084394;28;20078;-68
2023/02/01 12:01:37;;;;;;;5.47;2.22;;;7.20;85.00;;;;;;5092770;28;20035;-68
2023/02/01 12:04:40;;;;;;;6.63;2.28;;;7.20;84.70;;;;;;5084467;28;20032;-68
2023/02/01 12:07:34;;;;;;;4.32;1.73;;;7.20;83.40;;;;;;5091720;28;20023;-68
2023/02/01 12:10:20;;;;;;;7.30;2.80;;;7.10;83.30;;;;;;5085073;28;20032;-68
2023/02/01 12:13:14;;;;;;;4.30;2.25;;;7.20;83.10;;;;;;5087015;28;20020;-69
2023/02/01 12:15:47;;;;;;;7.03;2.42;;;7.10;81.50;;;;;;5086552;28;20466;-68
2023/02/01 12:18:36;;;;;;;5.57;2.00;;;7.20;82.20;;;;;;5083579;28;20039;-68
2023/02/01 12:21:29;;;;;;;5.60;2.28;;;7.30;83.00;;;;;;5094714;28;20153;-68
2023/02/01 12:24:33;;;;;;;5.85;2.03;;;7.60;82.70;;;;;;5084443;28;21061;-68
2023/02/01 12:27:24;;;;;;;5.63;2.35;;;7.50;81.70;;;;;;5022981;28;20464;-67
2023/02/01 12:30:19;;;;;;;5.40;2.30;;;7.60;82.80;;;;;;5065998;28;20055;-68
2023/02/01 12:32:44;;;;;;;5.47;2.30;;;7.70;82.30;;;;;;5084703;28;20659;-68
2023/02/01 12:35:51;;;;;;;9.20;4.35;;;7.70;82.30;;;;;;5085692;28;20074;-68
2023/02/01 12:38:48;;;;;;;5.65;3.25;;;7.80;81.90;;;;;;5083847;28;20051;-68
2023/02/01 12:41:40;;;;;;;6.90;2.67;;;7.90;81.50;;;;;;5093363;28;20385;-69
2023/02/01 12:44:15;;;;;;;5.55;2.58;;;8.00;83.40;;;;;;5086835;28;20028;-68
2023/02/01 12:46:50;;;;;;;9.82;3.20;;;8.10;82.10;;;;;;5092930;28;21353;-68
2023/02/01 12:49:18;;;;;;;;;;;8.30;82.30;;;;;;5088058;28;20035;-68
2023/02/01 12:51:49;;;;;;;11.48;3.30;;;8.40;81.90;;;;;;5077300;28;19912;-68
2023/02/01 12:55:11;;;;;;;6.25;2.78;;;8.30;81.90;;;;;;5083810;28;20055;-68
2023/02/01 12:57:42;;;;;;;5.25;2.20;;;8.20;81.10;;;;;;4997039;28;20041;-68
2023/02/01 13:00:22;;;;;;;4.47;2.83;;;8.10;81.20;;;;;;4997536;28;20512;-69
2023/02/01 13:02:58;;;;;;;6.45;2.60;;;8.20;81.90;;;;;;5054217;28;20097;-70
2023/02/01 13:05:31;;;;;;;5.82;2.28;;;8.20;81.30;;;;;;5091124;28;20112;-69
2023/02/01 13:08:07;;;;;;;10.95;4.63;;;8.10;81.40;;;;;;5088776;28;20059;-69
2023/02/01 13:10:46;;;;;;;6.47;2.80;;;8.20;81.90;;;;;;5081864;28;20572;-69
2023/02/01 13:13:38;;;;;;;6.88;2.40;;;8.20;81.00;;;;;;5080635;28;20044;-69
2023/02/01 13:16:17;;;;;;;4.70;2.22;;;8.30;81.60;;;;;;5080868;28;20031;-69
2023/02/01 13:18:49;;;;;;;6.55;2.22;;;8.30;81.00;;;;;;5083702;28;20028;-69
2023/02/01 13:21:32;;;;;;;8.82;4.45;;;8.40;82.70;;;;;;5082250;28;20036;-69
2023/02/01 13:23:58;;;;;;;5.47;3.00;;;8.70;81.30;;;;;;5086994;28;20028;-70
2023/02/01 13:26:24;;;;;;;4.57;2.78;;;8.70;81.00;;;;;;5083280;28;20386;-69
2023/02/01 13:29:01;;;;;;;8.32;2.90;;;8.60;80.00;;;;;;5081320;28;20126;-69
2023/02/01 13:31:41;;;;;;;7.75;3.92;;;8.50;79.80;;;;;;5080679;28;20093;-69
2023/02/01 13:34:37;;;;;;;8.23;4.40;;;8.60;80.60;;;;;;5088696;28;20043;-69
2023/02/01 13:37:28;;;;;;;7.70;3.92;;;9.00;80.90;;;;;;5082919;28;20052;-69
2023/02/01 13:40:29;;;;;;;6.80;3.80;;;9.00;80.00;;;;;;5082916;28;20092;-69